createdAt,value
2022-08-11T00:02:03.788Z,13.92
2022-08-11T00:04:39.443Z,13.94
2022-08-11T00:07:10.848Z,13.97
2022-08-11T00:09:41.084Z,13.81
2022-08-11T00:12:17.525Z,13.85
2022-08-11T00:14:56.371Z,13.79
2022-08-11T00:17:31.191Z,13.64
2022-08-11T00:20:15.075Z,13.67
2022-08-11T00:22:48.821Z,13.40
2022-08-11T00:25:22.800Z,13.27
2022-08-11T00:27:52.058Z,13.20
2022-08-11T00:30:21.319Z,13.22
2022-08-11T00:32:59.121Z,13.27
2022-08-11T00:35:54.433Z,13.12
2022-08-11T00:38:27.700Z,13.17
2022-08-11T00:41:05.645Z,13.17
2022-08-11T00:44:02.790Z,13.05
2022-08-11T00:46:43.987Z,13.09
2022-08-11T00:49:25.555Z,13.09
2022-08-11T00:52:11.556Z,13.07
2022-08-11T00:55:38.096Z,13.16
2022-08-11T00:59:26.395Z,12.94
2022-08-11T01:02:17.750Z,13.02
2022-08-11T01:05:21.790Z,12.92
2022-08-11T01:08:46.896Z,13.05
2022-08-11T01:12:06.203Z,12.79
2022-08-11T01:15:16.303Z,12.92
2022-08-11T01:18:56.099Z,12.95
2022-08-11T01:22:21.068Z,12.86
2022-08-11T01:25:57.301Z,12.85
2022-08-11T01:29:26.539Z,12.76
2022-08-11T01:32:48.935Z,12.67
2022-08-11T01:35:56.651Z,12.63
2022-08-11T01:39:03.930Z,12.68
2022-08-11T01:42:19.960Z,12.78
2022-08-11T01:45:12.685Z,12.69
2022-08-11T01:47:57.556Z,12.75
2022-08-11T01:50:47.579Z,12.65
2022-08-11T01:53:31.996Z,12.58
2022-08-11T01:56:15.521Z,12.56
2022-08-11T01:58:51.405Z,12.43
2022-08-11T02:01:44.463Z,12.25
2022-08-11T02:04:26.906Z,12.16
2022-08-11T02:07:11.091Z,11.99
2022-08-11T02:09:57.847Z,12.12
2022-08-11T02:12:52.349Z,11.94
2022-08-11T02:15:34.526Z,11.98
2022-08-11T02:18:15.020Z,11.98
2022-08-11T02:21:10.144Z,11.95
2022-08-11T02:24:06.655Z,11.92
2022-08-11T02:26:44.703Z,11.95
2022-08-11T02:29:26.940Z,12.02
2022-08-11T02:32:34.014Z,12.08
2022-08-11T02:35:20.123Z,11.97
2022-08-11T02:38:02.192Z,11.89
2022-08-11T02:40:50.527Z,12.08
2022-08-11T02:43:36.184Z,12.06
2022-08-11T02:46:23.061Z,11.92
2022-08-11T02:49:18.586Z,11.88
2022-08-11T02:52:09.759Z,11.83
2022-08-11T02:54:54.727Z,11.86
2022-08-11T02:57:34.812Z,11.90
2022-08-11T03:00:09.753Z,11.79
2022-08-11T03:03:07.669Z,11.77
2022-08-11T03:06:09.281Z,11.80
2022-08-11T03:08:52.621Z,12.02
2022-08-11T03:11:57.830Z,12.06
2022-08-11T03:14:53.513Z,11.93
2022-08-11T03:17:31.707Z,11.96
2022-08-11T03:20:33.523Z,11.90
2022-08-11T03:23:19.927Z,11.95
2022-08-11T03:26:02.808Z,11.79
2022-08-11T03:28:44.251Z,11.64
2022-08-11T03:31:28.391Z,11.65
2022-08-11T03:34:07.910Z,11.61
2022-08-11T03:37:34.465Z,11.55
2022-08-11T03:40:41.329Z,11.45
2022-08-11T03:43:30.322Z,11.28
2022-08-11T03:46:09.724Z,11.10
2022-08-11T03:48:56.010Z,11.06
2022-08-11T03:51:44.775Z,10.98
2022-08-11T03:54:37.364Z,11.20
2022-08-11T03:57:49.844Z,11.25
2022-08-11T04:01:09.161Z,11.15
2022-08-11T04:04:33.372Z,11.13
2022-08-11T04:07:59.201Z,11.13
2022-08-11T04:11:29.084Z,11.09
2022-08-11T04:14:54.908Z,11.17
2022-08-11T04:18:02.258Z,11.22
2022-08-11T04:21:22.046Z,11.34
2022-08-11T04:24:38.719Z,11.37
2022-08-11T04:27:56.232Z,11.43
2022-08-11T04:30:40.456Z,11.37
2022-08-11T04:33:59.784Z,11.45
2022-08-11T04:37:16.226Z,11.80
2022-08-11T04:40:25.457Z,11.79
2022-08-11T04:44:05.718Z,11.99
2022-08-11T04:46:58.798Z,12.21
2022-08-11T04:50:14.198Z,12.32
2022-08-11T04:53:38.486Z,12.44
2022-08-11T04:56:33.004Z,12.52
2022-08-11T05:00:19.842Z,12.76
2022-08-11T05:03:47.396Z,12.87
2022-08-11T05:07:03.891Z,13.20
2022-08-11T05:10:17.414Z,13.34
2022-08-11T05:12:51.242Z,13.55
2022-08-11T05:15:52.004Z,13.66
2022-08-11T05:18:42.623Z,13.82
2022-08-11T05:21:44.476Z,13.93
2022-08-11T05:24:39.708Z,14.10
2022-08-11T05:27:32.817Z,14.25
2022-08-11T05:30:23.984Z,14.36
2022-08-11T05:33:17.995Z,14.45
2022-08-11T05:36:01.857Z,14.56
2022-08-11T05:38:54.834Z,14.78
2022-08-11T05:41:47.992Z,15.01
2022-08-11T05:44:39.919Z,15.19
2022-08-11T05:47:27.460Z,15.33
2022-08-11T05:50:15.122Z,15.53
2022-08-11T05:53:08.901Z,15.72
2022-08-11T05:56:03.147Z,15.89
2022-08-11T05:58:42.287Z,16.08
2022-08-11T06:01:15.324Z,16.31
2022-08-11T06:04:04.260Z,16.42
2022-08-11T06:06:34.010Z,16.58
2022-08-11T06:09:03.843Z,16.78
2022-08-11T06:11:45.503Z,17.08
2022-08-11T06:14:16.556Z,17.28
2022-08-11T06:16:51.135Z,17.51
2022-08-11T06:19:24.775Z,17.67
2022-08-11T06:21:54.634Z,17.79
2022-08-11T06:24:24.494Z,17.97
2022-08-11T06:27:11.900Z,18.09
2022-08-11T06:29:54.952Z,18.38
2022-08-11T06:32:32.915Z,18.61
2022-08-11T06:35:24.820Z,18.77
2022-08-11T06:38:07.565Z,18.91
2022-08-11T06:41:06.096Z,19.11
2022-08-11T06:43:55.360Z,19.33
2022-08-11T06:46:30.680Z,19.49
2022-08-11T06:49:03.911Z,19.64
2022-08-11T06:51:35.088Z,19.79
2022-08-11T06:54:06.004Z,19.95
2022-08-11T06:57:26.445Z,20.15
2022-08-11T07:00:04.879Z,20.41
2022-08-11T07:02:39.059Z,20.63
2022-08-11T07:05:21.797Z,20.84
2022-08-11T07:08:59.415Z,21.06
2022-08-11T07:12:18.959Z,21.28
2022-08-11T07:15:10.469Z,21.44
2022-08-11T07:17:49.534Z,21.65
2022-08-11T07:20:38.154Z,21.83
2022-08-11T07:23:29.085Z,21.99
2022-08-11T07:26:19.656Z,22.05
2022-08-11T07:28:58.443Z,22.18
2022-08-11T07:31:42.092Z,22.37
2022-08-11T07:34:21.564Z,22.54
2022-08-11T07:36:57.022Z,22.57
2022-08-11T07:39:29.455Z,22.60
2022-08-11T07:42:01.474Z,22.68
2022-08-11T07:44:34.971Z,22.83
2022-08-11T07:47:23.014Z,22.94
2022-08-11T07:50:12.493Z,23.10
2022-08-11T07:52:43.372Z,23.19
2022-08-11T07:55:16.934Z,23.29
2022-08-11T07:58:15.162Z,23.37
2022-08-11T08:01:10.161Z,23.43
2022-08-11T08:03:59.410Z,23.49
2022-08-11T08:06:47.691Z,23.55
2022-08-11T08:09:38.651Z,23.71
2022-08-11T08:12:27.394Z,23.84
2022-08-11T08:15:16.046Z,23.94
2022-08-11T08:18:08.949Z,24.02
2022-08-11T08:20:50.697Z,24.20
2022-08-11T08:23:33.466Z,24.30
2022-08-11T08:26:29.003Z,24.38
2022-08-11T08:29:16.466Z,24.49
2022-08-11T08:31:48.486Z,24.53
2022-08-11T08:34:19.632Z,24.65
2022-08-11T08:36:51.835Z,24.72
2022-08-11T08:39:22.163Z,24.74
2022-08-11T08:41:56.473Z,24.76
2022-08-11T08:44:38.216Z,24.84
2022-08-11T08:47:15.389Z,24.99
2022-08-11T08:50:09.370Z,25.10
2022-08-11T08:52:54.793Z,24.92
2022-08-11T08:55:24.587Z,25.23
2022-08-11T08:57:58.116Z,25.39
2022-08-11T09:00:38.780Z,25.59
2022-08-11T09:03:38.223Z,25.63
2022-08-11T09:05:58.562Z,25.70
2022-08-11T09:08:29.531Z,25.77
2022-08-11T09:11:17.033Z,25.95
2022-08-11T09:14:06.491Z,26.03
2022-08-11T09:16:41.302Z,25.85
2022-08-11T09:19:17.619Z,25.80
2022-08-11T09:22:12.552Z,25.43
2022-08-11T09:25:00.036Z,25.45
2022-08-11T09:27:29.539Z,25.56
2022-08-11T09:30:00.254Z,25.84
2022-08-11T09:32:33.577Z,25.88
2022-08-11T09:35:05.894Z,26.07
2022-08-11T09:37:56.618Z,26.35
2022-08-11T09:40:31.223Z,26.73
2022-08-11T09:43:21.492Z,26.90
2022-08-11T09:45:55.942Z,26.81
2022-08-11T09:48:27.762Z,26.58
2022-08-11T09:51:01.099Z,26.26
2022-08-11T09:53:40.503Z,26.38
2022-08-11T09:56:33.852Z,26.59
2022-08-11T09:59:04.542Z,26.83
2022-08-11T10:01:41.694Z,27.00
2022-08-11T10:04:15.566Z,27.17
2022-08-11T10:07:05.533Z,27.38
2022-08-11T10:09:44.105Z,27.70
2022-08-11T10:12:24.530Z,27.84
2022-08-11T10:15:14.547Z,27.87
2022-08-11T10:18:03.806Z,27.98
2022-08-11T10:20:39.096Z,28.24
2022-08-11T10:23:33.438Z,28.17
2022-08-11T10:26:22.668Z,28.28
2022-08-11T10:29:12.169Z,28.30
2022-08-11T10:32:04.297Z,28.39
2022-08-11T10:34:36.049Z,28.09
2022-08-11T10:37:15.052Z,28.40
2022-08-11T10:39:45.770Z,28.63
2022-08-11T10:42:55.294Z,28.68
2022-08-11T10:45:40.976Z,29.06
2022-08-11T10:48:15.245Z,29.23
2022-08-11T10:51:07.325Z,29.41
2022-08-11T10:53:55.338Z,29.60
2022-08-11T10:56:42.839Z,29.30
2022-08-11T10:59:12.272Z,29.29
2022-08-11T11:01:46.104Z,29.46
2022-08-11T11:04:18.623Z,30.02
2022-08-11T11:07:00.982Z,30.76
2022-08-11T11:09:33.425Z,31.57
2022-08-11T11:12:27.642Z,31.73
2022-08-11T11:15:16.151Z,32.16
2022-08-11T11:18:01.817Z,32.71
2022-08-11T11:20:39.317Z,33.04
2022-08-11T11:23:20.037Z,33.62
2022-08-11T11:26:31.124Z,34.31
2022-08-11T11:29:49.694Z,34.47
2022-08-11T11:32:32.316Z,34.95
2022-08-11T11:35:27.854Z,34.99
2022-08-11T11:38:05.022Z,35.47
2022-08-11T11:40:37.510Z,36.17
2022-08-11T11:43:07.115Z,36.33
2022-08-11T11:45:36.790Z,36.05
2022-08-11T11:48:07.460Z,35.81
2022-08-11T11:50:39.529Z,36.07
2022-08-11T11:53:11.752Z,36.82
2022-08-11T11:55:43.155Z,36.69
2022-08-11T11:58:31.313Z,37.79
2022-08-11T12:01:20.179Z,37.15
2022-08-11T12:03:52.976Z,34.96
2022-08-11T12:06:27.717Z,35.10
2022-08-11T12:09:01.730Z,33.57
2022-08-11T12:11:51.673Z,32.86
2022-08-11T12:14:27.002Z,33.20
2022-08-11T12:16:58.829Z,32.81
2022-08-11T12:19:35.808Z,33.14
2022-08-11T12:22:24.883Z,33.30
2022-08-11T12:25:12.501Z,33.78
2022-08-11T12:27:43.667Z,34.45
2022-08-11T12:30:15.407Z,35.28
2022-08-11T12:32:45.749Z,35.72
2022-08-11T12:35:17.907Z,37.27
2022-08-11T12:37:50.716Z,38.11
2022-08-11T12:41:11.714Z,37.89
2022-08-11T12:43:56.855Z,37.11
2022-08-11T12:46:35.745Z,37.66
2022-08-11T12:49:30.920Z,38.67
2022-08-11T12:52:15.049Z,40.48
2022-08-11T12:54:57.981Z,42.61
2022-08-11T12:57:52.679Z,42.38
2022-08-11T13:00:42.627Z,38.52
2022-08-11T13:03:32.419Z,34.77
2022-08-11T13:06:05.443Z,33.52
2022-08-11T13:08:39.669Z,32.41
2022-08-11T13:11:56.910Z,32.09
2022-08-11T13:14:21.343Z,31.28
2022-08-11T13:17:15.272Z,31.59
2022-08-11T13:19:49.596Z,31.50
2022-08-11T13:22:21.712Z,31.30
2022-08-11T13:24:55.258Z,31.34
2022-08-11T13:27:26.092Z,31.60
2022-08-11T13:30:15.834Z,32.29
2022-08-11T13:32:48.058Z,33.14
2022-08-11T13:35:18.968Z,33.39
2022-08-11T13:38:18.625Z,32.71
2022-08-11T13:40:55.277Z,32.65
2022-08-11T13:43:26.125Z,32.80
2022-08-11T13:46:16.624Z,32.33
2022-08-11T13:48:47.702Z,32.66
2022-08-11T13:51:34.792Z,33.48
2022-08-11T13:54:09.002Z,33.11
2022-08-11T13:56:43.599Z,32.83
2022-08-11T13:59:15.702Z,32.56
2022-08-11T14:01:51.442Z,32.59
2022-08-11T14:04:45.138Z,32.17
2022-08-11T14:07:19.953Z,33.38
2022-08-11T14:09:56.475Z,32.45
2022-08-11T14:12:46.168Z,31.28
2022-08-11T14:15:20.903Z,31.25
2022-08-11T14:17:56.374Z,32.72
2022-08-11T14:20:47.436Z,33.75
2022-08-11T14:23:16.949Z,32.91
2022-08-11T14:26:02.299Z,31.56
2022-08-11T14:28:41.658Z,31.63
2022-08-11T14:31:15.947Z,31.65
2022-08-11T14:33:59.799Z,31.77
2022-08-11T14:36:39.711Z,31.93
2022-08-11T14:39:13.180Z,32.17
2022-08-11T14:42:12.088Z,32.63
2022-08-11T14:45:06.017Z,32.90
2022-08-11T14:47:37.714Z,32.62
2022-08-11T14:50:14.031Z,32.18
2022-08-11T14:52:51.898Z,31.63
2022-08-11T14:55:41.019Z,31.18
2022-08-11T14:58:12.221Z,30.87
2022-08-11T15:00:44.247Z,30.61
2022-08-11T15:03:15.415Z,30.33
2022-08-11T15:05:54.316Z,30.54
2022-08-11T15:08:48.880Z,30.16
2022-08-11T15:11:40.180Z,30.60
2022-08-11T15:14:12.342Z,30.00
2022-08-11T15:17:05.735Z,29.59
2022-08-11T15:19:40.987Z,28.98
2022-08-11T15:22:29.253Z,28.54
2022-08-11T15:25:01.218Z,28.61
2022-08-11T15:27:52.325Z,28.92
2022-08-11T15:30:41.077Z,28.96
2022-08-11T15:33:44.935Z,28.91
2022-08-11T15:36:33.569Z,28.58
2022-08-11T15:39:09.500Z,28.42
2022-08-11T15:42:15.785Z,28.39
2022-08-11T15:45:10.006Z,28.01
2022-08-11T15:47:46.103Z,27.89
2022-08-11T15:50:22.050Z,27.67
2022-08-11T15:53:00.644Z,27.51
2022-08-11T15:55:33.750Z,27.51
2022-08-11T15:58:27.429Z,27.40
2022-08-11T16:01:16.198Z,27.21
2022-08-11T16:04:12.610Z,27.25
2022-08-11T16:06:55.725Z,27.07
2022-08-11T16:09:46.821Z,26.95
2022-08-11T16:12:21.620Z,26.71
2022-08-11T16:15:15.410Z,26.50
2022-08-11T16:17:54.440Z,26.23
2022-08-11T16:20:27.496Z,26.09
2022-08-11T16:23:02.858Z,25.97
2022-08-11T16:27:07.217Z,25.87
2022-08-11T16:28:28.815Z,25.82
2022-08-11T16:30:59.639Z,25.73
2022-08-11T16:33:51.078Z,25.66
2022-08-11T16:36:38.933Z,25.72
2022-08-11T16:39:09.612Z,26.36
2022-08-11T16:42:01.030Z,27.18
2022-08-11T16:44:51.512Z,27.06
2022-08-11T16:48:02.082Z,26.85
2022-08-11T16:50:14.610Z,26.57
2022-08-11T16:52:46.440Z,26.37
2022-08-11T16:55:52.097Z,26.10
2022-08-11T16:58:25.420Z,25.90
2022-08-11T17:00:59.031Z,25.75
2022-08-11T17:03:52.191Z,25.56
2022-08-11T17:06:40.220Z,25.37
2022-08-11T17:09:29.561Z,25.23
2022-08-11T17:12:18.765Z,25.20
2022-08-11T17:14:53.172Z,25.06
2022-08-11T17:17:30.071Z,25.08
2022-08-11T17:20:40.962Z,24.98
2022-08-11T17:23:15.303Z,24.93
2022-08-11T17:26:03.876Z,24.71
2022-08-11T17:28:36.343Z,24.52
2022-08-11T17:31:22.840Z,24.35
2022-08-11T17:34:11.428Z,24.24
2022-08-11T17:36:45.854Z,24.09
2022-08-11T17:39:17.244Z,23.98
2022-08-11T17:42:04.383Z,23.85
2022-08-11T17:44:50.018Z,23.79
2022-08-11T17:47:39.701Z,23.69
2022-08-11T17:50:17.252Z,23.56
2022-08-11T17:53:07.466Z,23.51
2022-08-11T17:55:56.015Z,23.48
2022-08-11T17:58:46.190Z,23.45
2022-08-11T18:01:17.171Z,23.41
2022-08-11T18:03:53.276Z,23.27
2022-08-11T18:06:34.035Z,23.15
2022-08-11T18:09:28.119Z,23.07
2022-08-11T18:12:16.255Z,22.95
2022-08-11T18:15:07.628Z,22.83
2022-08-11T18:17:55.773Z,22.74
2022-08-11T18:20:43.875Z,22.67
2022-08-11T18:23:40.365Z,22.58
2022-08-11T18:26:40.391Z,22.49
2022-08-11T18:29:28.199Z,22.30
2022-08-11T18:32:21.211Z,22.10
2022-08-11T18:35:11.150Z,21.97
2022-08-11T18:38:07.997Z,21.80
2022-08-11T18:40:55.620Z,21.69
2022-08-11T18:43:46.704Z,21.52
2022-08-11T18:46:39.228Z,21.42
2022-08-11T18:50:00.973Z,21.38
2022-08-11T18:52:39.181Z,21.15
2022-08-11T18:55:33.076Z,21.06
2022-08-11T18:58:26.268Z,20.95
2022-08-11T19:01:20.734Z,20.94
2022-08-11T19:04:11.214Z,20.83
2022-08-11T19:07:12.414Z,20.75
2022-08-11T19:10:02.067Z,20.69
2022-08-11T19:12:54.371Z,20.76
2022-08-11T19:15:42.526Z,20.69
2022-08-11T19:18:37.143Z,20.65
2022-08-11T19:21:26.308Z,20.72
2022-08-11T19:24:18.584Z,20.61
2022-08-11T19:27:06.952Z,20.42
2022-08-11T19:30:11.210Z,20.45
2022-08-11T19:33:04.291Z,20.40
2022-08-11T19:36:04.780Z,20.35
2022-08-11T19:38:53.101Z,20.31
2022-08-11T19:41:57.117Z,20.19
2022-08-11T19:44:45.845Z,20.19
2022-08-11T19:47:38.522Z,20.17
2022-08-11T19:50:31.104Z,20.12
2022-08-11T19:53:30.210Z,20.09
2022-08-11T19:56:42.419Z,20.09
2022-08-11T19:59:32.257Z,19.97
2022-08-11T20:02:18.980Z,20.01
2022-08-11T20:05:08.679Z,19.87
2022-08-11T20:07:56.379Z,19.69
2022-08-11T20:10:46.322Z,19.58
2022-08-11T20:13:34.827Z,19.54
2022-08-11T20:16:33.461Z,19.57
2022-08-11T20:19:56.619Z,19.48
2022-08-11T20:22:35.850Z,19.38
2022-08-11T20:25:24.715Z,19.31
2022-08-11T20:28:14.440Z,19.32
2022-08-11T20:31:08.007Z,19.21
2022-08-11T20:33:55.741Z,19.18
2022-08-11T20:36:47.600Z,19.11
2022-08-11T20:39:43.329Z,19.17
2022-08-11T20:42:31.905Z,19.09
2022-08-11T20:45:23.487Z,19.15
2022-08-11T20:48:15.374Z,19.02
2022-08-11T20:51:06.014Z,18.96
2022-08-11T20:53:57.599Z,18.87
2022-08-11T20:56:51.986Z,18.91
2022-08-11T20:59:52.686Z,18.83
2022-08-11T21:02:50.113Z,19.05
2022-08-11T21:06:09.624Z,19.03
2022-08-11T21:08:49.770Z,18.99
2022-08-11T21:11:37.409Z,18.95
2022-08-11T21:14:29.970Z,18.92
2022-08-11T21:17:27.392Z,18.92
2022-08-11T21:20:23.221Z,19.00
2022-08-11T21:23:19.983Z,19.00
2022-08-11T21:26:15.497Z,19.04
2022-08-11T21:29:04.296Z,18.98
2022-08-11T21:31:52.332Z,18.96
2022-08-11T21:34:40.396Z,18.98
2022-08-11T21:37:31.015Z,18.89
2022-08-11T21:40:19.480Z,18.84
2022-08-11T21:43:08.690Z,18.82
2022-08-11T21:45:58.775Z,18.77
2022-08-11T21:48:46.725Z,18.61
2022-08-11T21:51:33.191Z,18.59
2022-08-11T21:54:22.315Z,18.71
2022-08-11T21:57:10.419Z,18.74
2022-08-11T22:00:03.091Z,18.60
2022-08-11T22:02:58.520Z,18.42
2022-08-11T22:05:47.100Z,18.49
2022-08-11T22:08:34.085Z,18.45
2022-08-11T22:11:32.203Z,18.51
2022-08-11T22:14:19.274Z,18.50
2022-08-11T22:17:05.915Z,18.46
2022-08-11T22:19:54.605Z,18.40
2022-08-11T22:22:51.945Z,18.38
2022-08-11T22:25:50.823Z,18.36
2022-08-11T22:28:40.343Z,18.38
2022-08-11T22:31:29.433Z,18.28
2022-08-11T22:34:16.010Z,18.26
2022-08-11T22:37:04.426Z,18.16
2022-08-11T22:40:01.889Z,18.14
2022-08-11T22:42:49.924Z,17.93
2022-08-11T22:45:38.886Z,17.80
2022-08-11T22:48:27.868Z,17.60
2022-08-11T22:51:16.584Z,17.53
2022-08-11T22:54:04.655Z,17.47
2022-08-11T22:56:52.854Z,17.39
2022-08-11T22:59:41.075Z,17.36
2022-08-11T23:02:30.334Z,17.37
2022-08-11T23:05:17.929Z,17.19
2022-08-11T23:08:05.080Z,17.33
2022-08-11T23:10:52.908Z,17.25
2022-08-11T23:13:40.480Z,17.18
2022-08-11T23:16:27.563Z,17.10
2022-08-11T23:20:07.348Z,17.08
2022-08-11T23:22:23.434Z,16.95
2022-08-11T23:25:24.625Z,16.92
2022-08-11T23:28:11.667Z,17.08
2022-08-11T23:30:59.278Z,17.09
2022-08-11T23:33:49.152Z,17.06
2022-08-11T23:36:47.056Z,17.06
2022-08-11T23:39:35.986Z,17.16
2022-08-11T23:42:24.150Z,17.29
2022-08-11T23:45:10.789Z,17.29
2022-08-11T23:47:58.089Z,17.35
2022-08-11T23:50:45.469Z,17.29
2022-08-11T23:53:33.667Z,17.31
2022-08-11T23:56:21.870Z,17.24
2022-08-11T23:59:09.054Z,17.15
